| time (UTC) | temp C | wind direction | speed KPH | gust KPH | rain 1hr cm | rain 24hr cm | rain mn cm | humidity % | barometer mb |
| 20260510123651 | 11 | 0 | 0.0 | 0.0 | 0.00 | 0.08 | 0.08 | 74 | 1014.9 |
| 20260510122749 | 11 | 0 | 0.0 | 0.0 | 0.00 | 0.08 | 0.08 | 74 | 1014.5 |
| 20260510121923 | 11 | 0 | 0.0 | 0.0 | 0.00 | 0.08 | 0.08 | 74 | 1014.5 |
| 20260510121851 | 11 | 0 | 0.0 | 0.0 | 0.00 | 0.08 | 0.08 | 74 | 1014.5 |
| 20260510121021 | 11 | 0 | 0.0 | 0.0 | 0.00 | 0.08 | 0.08 | 74 | 1014.4 |
| 20260510120949 | 11 | 0 | 0.0 | 0.0 | 0.00 | 0.08 | 0.08 | 74 | 1014.4 |
| 20260510120048 | 11 | 0 | 0.0 | 0.0 | 0.00 | 0.08 | 0.08 | 74 | 1014.3 |
| 20260510115150 | 11 | 0 | 0.0 | 0.0 | 0.00 | 0.08 | 0.08 | 74 | 1014.2 |
| 20260510114251 | 11 | 0 | 0.0 | 0.0 | 0.00 | 0.08 | 0.08 | 74 | 1014.0 |
| 20260510113349 | 11 | 0 | 0.0 | 0.0 | 0.00 | 0.08 | 0.08 | 74 | 1013.9 |
| 20260510112521 | 11 | 0 | 0.0 | 0.0 | 0.00 | 0.08 | 0.08 | 74 | 1013.8 |
| 20260510112448 | 11 | 0 | 0.0 | 0.0 | 0.00 | 0.08 | 0.08 | 74 | 1013.8 |
| 20260510111549 | 11 | 208 | 0.0 | 0.0 | 0.00 | 0.08 | 0.08 | 74 | 1013.8 |
| 20260510110650 | 11 | 226 | 0.0 | 0.0 | 0.00 | 0.08 | 0.08 | 74 | 1013.7 |
| 20260510105754 | 11 | 248 | 0.0 | 0.0 | 0.00 | 0.08 | 0.08 | 73 | 1013.6 |
| 20260510104849 | 11 | 248 | 0.0 | 0.0 | 0.00 | 0.08 | 0.08 | 73 | 1013.5 |
| 20260510103950 | 11 | 248 | 0.0 | 3.2 | 0.00 | 0.08 | 0.08 | 72 | 1013.2 |
| 20260510103049 | 11 | 216 | 0.0 | 1.6 | 0.00 | 0.08 | 0.08 | 74 | 1013.0 |
| 20260510102149 | 11 | 212 | 0.0 | 1.6 | 0.00 | 0.08 | 0.08 | 76 | 1012.9 |
| 20260510101250 | 11 | 211 | 0.0 | 0.0 | 0.00 | 0.08 | 0.08 | 74 | 1012.7 |
| 20260510100348 | 11 | 212 | 0.0 | 0.0 | 0.00 | 0.10 | 0.08 | 74 | 1012.8 |
| 20260510095449 | 11 | 215 | 0.0 | 0.0 | 0.00 | 0.10 | 0.08 | 74 | 1012.9 |
| 20260510094549 | 11 | 215 | 0.0 | 0.0 | 0.00 | 0.13 | 0.08 | 72 | 1013.0 |
| 20260510093650 | 12 | 245 | 0.0 | 0.0 | 0.00 | 0.13 | 0.08 | 73 | 1012.9 |
| 20260510092748 | 12 | 221 | 0.0 | 0.0 | 0.00 | 0.13 | 0.08 | 72 | 1012.7 |
| 20260510091850 | 12 | 167 | 0.0 | 3.2 | 0.00 | 0.13 | 0.08 | 73 | 1012.4 |
| 20260510090949 | 11 | 243 | 0.0 | 1.6 | 0.00 | 0.13 | 0.08 | 74 | 1012.2 |
| 20260510090155 | 11 | 166 | 0.0 | 0.0 | 0.00 | 0.13 | 0.08 | 76 | 1012.2 |
| 20260510090049 | 11 | 166 | 0.0 | 0.0 | 0.00 | 0.13 | 0.08 | 76 | 1012.2 |
| 20260510085150 | 11 | 314 | 0.0 | 0.0 | 0.00 | 0.13 | 0.08 | 77 | 1012.0 |
| 20260510084249 | 11 | 154 | 0.0 | 0.0 | 0.00 | 0.13 | 0.08 | 76 | 1011.9 |
| 20260510083350 | 11 | 87 | 0.0 | 1.6 | 0.03 | 0.13 | 0.08 | 77 | 1011.8 |
| 20260510082449 | 11 | 90 | 1.6 | 3.2 | 0.03 | 0.15 | 0.08 | 78 | 1011.5 |
| 20260510081550 | 12 | 160 | 0.0 | 0.0 | 0.03 | 0.15 | 0.08 | 79 | 1011.5 |
| 20260510080650 | 12 | 65 | 0.0 | 0.0 | 0.03 | 0.15 | 0.08 | 79 | 1011.3 |
| 20260510080259 | 12 | 64 | 0.0 | 0.0 | 0.03 | 0.15 | 0.08 | 80 | 1011.1 |
| 20260510080200 | 12 | 159 | 0.0 | 0.0 | 0.03 | 0.15 | 0.08 | 81 | 1011.2 |
| 20260510075830 | 12 | 64 | 0.0 | 0.0 | 0.03 | 0.15 | 0.08 | 80 | 1011.1 |
| 20260510075750 | 12 | 64 | 0.0 | 0.0 | 0.03 | 0.15 | 0.08 | 80 | 1011.1 |
| 20260510074851 | 12 | 159 | 0.0 | 0.0 | 0.03 | 0.15 | 0.08 | 81 | 1011.2 |
| 20260510073951 | 12 | 156 | 0.0 | 3.2 | 0.03 | 0.18 | 0.08 | 82 | 1011.3 |
| 20260510073050 | 13 | 317 | 0.0 | 0.0 | 0.00 | 0.18 | 0.05 | 84 | 1011.2 |
| 20260510072149 | 13 | 293 | 0.0 | 1.6 | 0.00 | 0.20 | 0.05 | 86 | 1011.2 |
| 20260510071248 | 13 | 293 | 0.0 | 0.0 | 0.00 | 0.20 | 0.05 | 87 | 1010.9 |
| 20260510070350 | 13 | 293 | 0.0 | 0.0 | 0.00 | 0.23 | 0.05 | 87 | 1010.8 |
| 20260510065448 | 13 | 293 | 0.0 | 0.0 | 0.00 | 0.25 | 0.05 | 86 | 1010.7 |
| 20260510064549 | 14 | 293 | 0.0 | 1.6 | 0.00 | 0.25 | 0.05 | 85 | 1010.6 |
| 20260510063649 | 14 | 293 | 0.0 | 1.6 | 0.00 | 0.28 | 0.05 | 85 | 1010.8 |
| 20260510062750 | 14 | 293 | 0.0 | 1.6 | 0.00 | 0.30 | 0.05 | 84 | 1010.7 |
| 20260510061848 | 15 | 293 | 0.0 | 1.6 | 0.00 | 0.33 | 0.05 | 84 | 1010.6 |
| 20260510061020 | 15 | 293 | 0.0 | 0.0 | 0.00 | 0.43 | 0.05 | 84 | 1010.6 |
| 20260510060949 | 15 | 293 | 0.0 | 0.0 | 0.00 | 0.43 | 0.05 | 84 | 1010.6 |
| 20260510060049 | 15 | 289 | 0.0 | 1.6 | 0.00 | 0.46 | 0.05 | 84 | 1010.7 |
| 20260510055149 | 15 | 323 | 0.0 | 1.6 | 0.00 | 0.51 | 0.05 | 85 | 1010.7 |
| 20260510054250 | 15 | 323 | 0.0 | 0.0 | 0.00 | 0.56 | 0.05 | 83 | 1010.7 |
| 20260510053348 | 15 | 325 | 0.0 | 1.6 | 0.05 | 0.66 | 0.05 | 83 | 1010.5 |
| 20260510052448 | 15 | 300 | 1.6 | 1.6 | 0.05 | 0.71 | 0.05 | 83 | 1010.3 |
| 20260510051549 | 15 | 245 | 0.0 | 4.8 | 0.05 | 0.81 | 0.05 | 83 | 1010.3 |
| 20260510050649 | 15 | 291 | 3.2 | 4.8 | 0.05 | 0.86 | 0.05 | 82 | 1010.5 |
| 20260510045750 | 16 | 299 | 3.2 | 4.8 | 0.00 | 0.89 | 0.05 | 81 | 1010.3 |
| 20260510044850 | 16 | 296 | 8.0 | 8.0 | 0.00 | 0.97 | 0.05 | 80 | 1010.3 |
| 20260510043949 | 16 | 300 | 8.0 | 8.0 | 0.00 | 1.02 | 0.05 | 78 | 1010.7 |
| 20260510043049 | 16 | 305 | 0.0 | 0.0 | 0.00 | 1.02 | 0.00 | 77 | 1010.1 |
| 20260510042149 | 16 | 313 | 3.2 | 3.2 | 0.00 | 1.07 | 0.00 | 76 | 1010.1 |
| 20260510041250 | 16 | 287 | 3.2 | 4.8 | 0.00 | 1.09 | 0.00 | 76 | 1009.8 |
| 20260510040350 | 16 | 282 | 1.6 | 3.2 | 0.00 | 1.17 | 0.00 | 76 | 1009.9 |
| 20260510035449 | 17 | 285 | 1.6 | 3.2 | 0.00 | 1.22 | 1.17 | 75 | 1009.9 |
| 20260510034550 | 17 | 267 | 3.2 | 3.2 | 0.00 | 1.27 | 1.17 | 75 | 1009.8 |
| 20260510033650 | 17 | 281 | 1.6 | 4.8 | 0.00 | 1.37 | 1.17 | 74 | 1009.8 |
| 20260510032750 | 17 | 273 | 3.2 | 4.8 | 0.00 | 1.42 | 1.17 | 74 | 1009.6 |
| 20260510031849 | 17 | 236 | 4.8 | 11.3 | 0.00 | 1.50 | 1.17 | 73 | 1009.5 |
| 20260510030950 | 17 | 262 | 3.2 | 4.8 | 0.00 | 1.55 | 1.17 | 73 | 1009.5 |
| 20260510030048 | 17 | 244 | 1.6 | 3.2 | 0.00 | 1.60 | 1.17 | 73 | 1009.5 |
| 20260510025149 | 17 | 274 | 1.6 | 4.8 | 0.00 | 1.65 | 1.17 | 73 | 1009.6 |
| 20260510024252 | 17 | 252 | 1.6 | 4.8 | 0.00 | 1.68 | 1.17 | 73 | 1009.6 |
| 20260510023351 | 17 | 234 | 3.2 | 4.8 | 0.00 | 1.73 | 1.17 | 73 | 1009.6 |
| 20260510022449 | 17 | 238 | 1.6 | 3.2 | 0.00 | 1.78 | 1.17 | 72 | 1009.5 |
| 20260510021550 | 17 | 241 | 1.6 | 4.8 | 0.00 | 1.88 | 1.17 | 71 | 1009.5 |
| 20260510020648 | 17 | 281 | 1.6 | 1.6 | 0.00 | 1.93 | 1.17 | 72 | 1009.3 |
| 20260510015749 | 17 | 254 | 0.0 | 0.0 | 0.00 | 1.98 | 1.17 | 70 | 1009.2 |
| 20260510014850 | 17 | 217 | 1.6 | 4.8 | 0.00 | 2.03 | 1.17 | 70 | 1009.1 |
| 20260510013949 | 17 | 277 | 3.2 | 4.8 | 0.00 | 2.06 | 1.17 | 69 | 1008.9 |
| 20260510013049 | 17 | 257 | 0.0 | 1.6 | 0.00 | 2.08 | 1.17 | 69 | 1008.8 |
| 20260510012149 | 18 | 242 | 1.6 | 3.2 | 0.00 | 2.11 | 1.17 | 68 | 1008.6 |
| 20260510011250 | 18 | 246 | 3.2 | 4.8 | 0.00 | 2.13 | 1.17 | 68 | 1008.5 |
| 20260510010348 | 18 | 245 | 1.6 | 4.8 | 0.00 | 2.16 | 1.17 | 68 | 1008.4 |
| 20260510005448 | 18 | 247 | 3.2 | 4.8 | 0.00 | 2.21 | 1.17 | 68 | 1008.2 |
| 20260510004550 | 18 | 244 | 1.6 | 4.8 | 0.00 | 2.24 | 1.17 | 68 | 1008.3 |
| 20260510003648 | 18 | 294 | 1.6 | 1.6 | 0.00 | 2.26 | 1.17 | 68 | 1008.1 |
| 20260510002749 | 19 | 279 | 1.6 | 3.2 | 0.00 | 2.26 | 1.17 | 65 | 1008.0 |
| 20260510001849 | 20 | 284 | 3.2 | 4.8 | 0.00 | 2.29 | 1.17 | 62 | 1007.8 |
| 20260510000948 | 20 | 273 | 3.2 | 4.8 | 0.00 | 2.31 | 1.17 | 60 | 1007.7 |
| 20260510000048 | 21 | 265 | 3.2 | 8.0 | 0.00 | 2.31 | 1.17 | 58 | 1007.6 |
| 20260509235150 | 21 | 274 | 8.0 | 12.9 | 0.00 | 2.34 | 1.17 | 57 | 1007.5 |
| 20260509234251 | 20 | 277 | 4.8 | 8.0 | 0.00 | 2.34 | 1.17 | 58 | 1007.5 |
| 20260509233349 | 21 | 277 | 4.8 | 4.8 | 0.00 | 2.36 | 1.17 | 55 | 1007.4 |
| 20260509232450 | 21 | 268 | 4.8 | 9.7 | 0.00 | 2.41 | 1.17 | 54 | 1007.2 |
| 20260509231558 | 21 | 257 | 9.7 | 16.1 | 0.00 | 2.41 | 1.17 | 55 | 1007.2 |
| 20260509231550 | 21 | 257 | 9.7 | 16.1 | 0.00 | 2.41 | 1.17 | 55 | 1007.2 |
| 20260509230649 | 21 | 281 | 8.0 | 12.9 | 0.00 | 2.44 | 1.17 | 53 | 1007.1 |
| 20260509225749 | 21 | 254 | 11.3 | 24.1 | 0.00 | 2.44 | 1.17 | 53 | 1007.1 |
| 20260509224849 | 21 | 259 | 8.0 | 12.9 | 0.00 | 2.44 | 1.17 | 55 | 1007.0 |
| 20260509223949 | 22 | 262 | 8.0 | 4.8 | 0.00 | 2.44 | 1.17 | 53 | 1007.0 |
| 20260509223048 | 22 | 268 | 8.0 | 9.7 | 0.00 | 2.44 | 1.17 | 52 | 1006.9 |
| 20260509222150 | 22 | 279 | 8.0 | 12.9 | 0.00 | 2.44 | 1.17 | 53 | 1006.9 |
| 20260509221249 | 22 | 278 | 4.8 | 19.3 | 0.00 | 2.44 | 1.17 | 56 | 1006.9 |
| 20260509220348 | 22 | 265 | 8.0 | 14.5 | 0.00 | 2.44 | 1.17 | 59 | 1006.9 |
| 20260509215450 | 22 | 246 | 8.0 | 20.9 | 0.00 | 2.44 | 1.17 | 59 | 1006.9 |
| 20260509214549 | 22 | 272 | 8.0 | 16.1 | 0.00 | 2.44 | 1.17 | 57 | 1006.8 |
| 20260509213649 | 22 | 251 | 11.3 | 22.5 | 0.00 | 2.44 | 1.17 | 57 | 1006.8 |
| 20260509212749 | 22 | 260 | 12.9 | 20.9 | 0.00 | 2.44 | 1.17 | 57 | 1006.8 |
| 20260509211849 | 22 | 252 | 11.3 | 27.4 | 0.00 | 2.44 | 1.17 | 58 | 1006.9 |
| 20260509210949 | 22 | 251 | 11.3 | 22.5 | 0.00 | 2.44 | 1.17 | 56 | 1007.0 |
| 20260509210049 | 22 | 266 | 8.0 | 14.5 | 0.00 | 2.44 | 1.17 | 61 | 1006.9 |
| 20260509205148 | 22 | 273 | 8.0 | 12.9 | 0.00 | 2.44 | 1.17 | 59 | 1007.0 |
| 20260509204724 | 22 | 249 | 11.3 | 14.5 | 0.00 | 2.44 | 1.17 | 57 | 1007.0 |
| 20260509203825 | 22 | 260 | 4.8 | 11.3 | 0.00 | 2.44 | 1.17 | 63 | 1007.1 |
| 20260509202924 | 22 | 238 | 14.5 | 22.5 | 0.00 | 2.44 | 1.17 | 62 | 1007.3 |
| 20260509202024 | 22 | 239 | 12.9 | 19.3 | 0.00 | 2.44 | 1.17 | 62 | 1007.4 |
| 20260509201126 | 21 | 264 | 8.0 | 11.3 | 0.00 | 2.44 | 1.17 | 63 | 1007.5 |
| 20260509200225 | 21 | 238 | 4.8 | 16.1 | 0.00 | 2.44 | 1.17 | 64 | 1007.6 |
| 20260509195325 | 21 | 266 | 8.0 | 14.5 | 0.00 | 2.44 | 1.17 | 65 | 1007.7 |
| 20260509194426 | 21 | 223 | 9.7 | 19.3 | 0.00 | 2.44 | 1.17 | 66 | 1007.8 |
| 20260509193524 | 21 | 266 | 4.8 | 11.3 | 0.00 | 2.44 | 1.17 | 67 | 1007.7 |
| 20260509192624 | 21 | 263 | 9.7 | 12.9 | 0.00 | 2.44 | 1.17 | 66 | 1007.8 |
| 20260509191726 | 21 | 228 | 11.3 | 32.2 | 0.00 | 2.44 | 1.17 | 68 | 1007.8 |
| 20260509190825 | 20 | 253 | 12.9 | 12.9 | 0.00 | 2.44 | 1.17 | 68 | 1007.8 |
| 20260509185925 | 20 | 206 | 12.9 | 19.3 | 0.00 | 2.44 | 1.17 | 67 | 1007.9 |
| 20260509185024 | 20 | 239 | 11.3 | 19.3 | 0.00 | 2.44 | 1.17 | 68 | 1008.0 |
| 20260509184127 | 20 | 264 | 8.0 | 12.9 | 0.00 | 2.44 | 1.17 | 68 | 1008.0 |
| 20260509183224 | 20 | 244 | 9.7 | 20.9 | 0.00 | 2.44 | 1.17 | 70 | 1007.9 |
| 20260509182325 | 20 | 259 | 11.3 | 20.9 | 0.00 | 2.44 | 1.17 | 70 | 1008.0 |
| 20260509181424 | 20 | 225 | 12.9 | 20.9 | 0.00 | 2.44 | 1.17 | 69 | 1008.0 |
| 20260509180525 | 20 | 239 | 12.9 | 19.3 | 0.00 | 2.44 | 1.17 | 69 | 1008.0 |
| 20260509175749 | 19 | 188 | 12.9 | 19.3 | 0.00 | 2.44 | 1.17 | 69 | 1008.0 |
| 20260509175624 | 19 | 188 | 12.9 | 19.3 | 0.00 | 2.44 | 1.17 | 69 | 1008.0 |
| 20260509174724 | 19 | 243 | 12.9 | 19.3 | 0.00 | 2.44 | 1.17 | 69 | 1008.0 |
| 20260509173826 | 19 | 247 | 8.0 | 19.3 | 0.00 | 2.44 | 1.17 | 71 | 1008.3 |
| 20260509172924 | 19 | 205 | 11.3 | 25.7 | 0.00 | 2.44 | 1.17 | 70 | 1008.4 |
| 20260509172024 | 19 | 205 | 11.3 | 19.3 | 0.00 | 2.44 | 1.17 | 71 | 1008.5 |
| 20260509171125 | 18 | 257 | 11.3 | 19.3 | 0.00 | 2.44 | 1.17 | 73 | 1008.4 |
| 20260509170225 | 18 | 245 | 9.7 | 20.9 | 0.00 | 2.44 | 1.17 | 72 | 1008.4 |
| 20260509164501 | 18 | 234 | 8.0 | 16.1 | 0.00 | 2.44 | 1.17 | 75 | 1008.4 |
| 20260509164426 | 18 | 234 | 8.0 | 16.1 | 0.00 | 2.44 | 1.17 | 75 | 1008.4 |
| 20260509163526 | 18 | 253 | 11.3 | 19.3 | 0.00 | 2.44 | 1.17 | 71 | 1008.5 |
| 20260509162624 | 18 | 245 | 12.9 | 16.1 | 0.00 | 2.44 | 1.17 | 72 | 1008.5 |
| 20260509161724 | 18 | 207 | 11.3 | 19.3 | 0.00 | 2.44 | 1.17 | 70 | 1008.3 |
| 20260509160825 | 18 | 205 | 9.7 | 16.1 | 0.00 | 2.44 | 1.17 | 72 | 1008.3 |
| 20260509155927 | 17 | 252 | 8.0 | 14.5 | 0.00 | 2.44 | 1.17 | 72 | 1008.3 |
| 20260509155025 | 17 | 217 | 11.3 | 16.1 | 0.00 | 2.44 | 1.17 | 73 | 1008.3 |
| 20260509154126 | 17 | 271 | 9.7 | 4.8 | 0.00 | 2.44 | 1.17 | 75 | 1008.4 |
| 20260509153225 | 17 | 250 | 9.7 | 19.3 | 0.00 | 2.44 | 1.17 | 75 | 1008.4 |
| 20260509152324 | 17 | 217 | 4.8 | 11.3 | 0.00 | 2.44 | 1.17 | 77 | 1008.4 |
| 20260509151425 | 17 | 250 | 4.8 | 12.9 | 0.00 | 2.44 | 1.17 | 78 | 1008.5 |
| 20260509150525 | 16 | 223 | 8.0 | 11.3 | 0.00 | 2.44 | 1.17 | 78 | 1008.4 |
| 20260509145624 | 16 | 233 | 8.0 | 11.3 | 0.00 | 2.44 | 1.17 | 78 | 1008.4 |
| 20260509144726 | 16 | 277 | 4.8 | 8.0 | 0.00 | 2.44 | 1.17 | 81 | 1008.2 |
| 20260509143856 | 16 | 215 | 8.0 | 8.0 | 0.00 | 2.44 | 1.17 | 82 | 1008.3 |
| 20260509143825 | 16 | 215 | 8.0 | 8.0 | 0.00 | 2.44 | 1.17 | 82 | 1008.3 |
| 20260509142925 | 15 | 238 | 8.0 | 11.3 | 0.00 | 2.44 | 1.17 | 82 | 1008.2 |
| 20260509141125 | 14 | 186 | 8.0 | 9.7 | 0.00 | 2.44 | 1.17 | 84 | 1008.1 |
| 20260509140226 | 14 | 234 | 4.8 | 12.9 | 0.00 | 2.44 | 1.17 | 86 | 1008.0 |
| 20260509135324 | 14 | 245 | 1.6 | 4.8 | 0.00 | 2.44 | 1.17 | 87 | 1008.0 |
| 20260509134456 | 13 | 218 | 3.2 | 9.7 | 0.00 | 2.44 | 1.17 | 87 | 1008.0 |
| 20260509134425 | 13 | 218 | 3.2 | 9.7 | 0.00 | 2.44 | 1.17 | 87 | 1008.0 |
| 20260509133555 | 13 | 180 | 8.0 | 9.7 | 0.00 | 2.44 | 1.17 | 88 | 1008.0 |
| 20260509133524 | 13 | 180 | 8.0 | 9.7 | 0.00 | 2.44 | 1.17 | 88 | 1008.0 |
| 20260509132624 | 13 | 218 | 1.6 | 4.8 | 0.00 | 2.44 | 1.17 | 91 | 1008.1 |
| 20260509131757 | 12 | 206 | 3.2 | 8.0 | 0.00 | 2.44 | 1.17 | 90 | 1008.2 |
| 20260509131724 | 12 | 206 | 3.2 | 8.0 | 0.00 | 2.44 | 1.17 | 90 | 1008.2 |
| 20260509130824 | 12 | 234 | 3.2 | 4.8 | 0.00 | 2.44 | 1.17 | 91 | 1008.3 |
| 20260509125925 | 12 | 230 | 4.8 | 8.0 | 0.00 | 2.44 | 1.17 | 91 | 1008.2 |
| 20260509124125 | 12 | 258 | 4.8 | 11.3 | 0.00 | 2.44 | 1.17 | 91 | 1008.4 |